sensor_id;sensor_type;location;lat;lon;timestamp;P1;durP1;ratioP1;P2;durP2;ratioP2
9783;SDS011;4931;44.874;-1.092;2023-07-30T00:00:35;10.73;;;3.42;;
9783;SDS011;4931;44.874;-1.092;2023-07-30T00:03:00;14.27;;;3.50;;
9783;SDS011;4931;44.874;-1.092;2023-07-30T00:05:26;11.07;;;3.55;;
9783;SDS011;4931;44.874;-1.092;2023-07-30T00:07:51;14.88;;;4.07;;
9783;SDS011;4931;44.874;-1.092;2023-07-30T00:10:17;11.93;;;3.95;;
9783;SDS011;4931;44.874;-1.092;2023-07-30T00:12:43;10.32;;;3.83;;
9783;SDS011;4931;44.874;-1.092;2023-07-30T00:15:08;16.63;;;4.40;;
9783;SDS011;4931;44.874;-1.092;2023-07-30T00:17:34;12.35;;;3.67;;
9783;SDS011;4931;44.874;-1.092;2023-07-30T00:19:59;12.52;;;3.63;;
9783;SDS011;4931;44.874;-1.092;2023-07-30T00:22:25;13.35;;;5.07;;
9783;SDS011;4931;44.874;-1.092;2023-07-30T00:24:50;14.65;;;4.40;;
9783;SDS011;4931;44.874;-1.092;2023-07-30T00:27:16;11.65;;;5.32;;
9783;SDS011;4931;44.874;-1.092;2023-07-30T00:29:41;13.60;;;4.20;;
9783;SDS011;4931;44.874;-1.092;2023-07-30T00:32:07;13.32;;;4.30;;
9783;SDS011;4931;44.874;-1.092;2023-07-30T00:34:32;13.45;;;4.70;;
9783;SDS011;4931;44.874;-1.092;2023-07-30T00:36:58;12.27;;;3.92;;
9783;SDS011;4931;44.874;-1.092;2023-07-30T00:39:23;15.45;;;4.85;;
9783;SDS011;4931;44.874;-1.092;2023-07-30T00:41:49;9.73;;;3.53;;
9783;SDS011;4931;44.874;-1.092;2023-07-30T00:44:15;11.68;;;3.70;;
9783;SDS011;4931;44.874;-1.092;2023-07-30T00:46:41;14.20;;;3.97;;
9783;SDS011;4931;44.874;-1.092;2023-07-30T00:49:06;10.85;;;3.80;;
9783;SDS011;4931;44.874;-1.092;2023-07-30T00:51:32;12.38;;;5.13;;
9783;SDS011;4931;44.874;-1.092;2023-07-30T00:53:58;11.13;;;4.53;;
9783;SDS011;4931;44.874;-1.092;2023-07-30T00:56:25;11.85;;;4.53;;
9783;SDS011;4931;44.874;-1.092;2023-07-30T00:58:51;11.27;;;5.15;;
9783;SDS011;4931;44.874;-1.092;2023-07-30T01:01:18;13.45;;;4.35;;
9783;SDS011;4931;44.874;-1.092;2023-07-30T01:03:43;9.38;;;4.63;;
9783;SDS011;4931;44.874;-1.092;2023-07-30T01:06:09;12.75;;;4.97;;
9783;SDS011;4931;44.874;-1.092;2023-07-30T01:08:35;12.52;;;4.18;;
9783;SDS011;4931;44.874;-1.092;2023-07-30T01:11:02;9.88;;;4.15;;
9783;SDS011;4931;44.874;-1.092;2023-07-30T01:13:29;9.32;;;4.18;;
9783;SDS011;4931;44.874;-1.092;2023-07-30T01:15:56;14.30;;;4.15;;
9783;SDS011;4931;44.874;-1.092;2023-07-30T01:18:22;12.27;;;4.10;;
9783;SDS011;4931;44.874;-1.092;2023-07-30T01:20:47;11.95;;;3.90;;
9783;SDS011;4931;44.874;-1.092;2023-07-30T01:23:13;16.75;;;4.30;;
9783;SDS011;4931;44.874;-1.092;2023-07-30T01:25:38;10.70;;;3.83;;
9783;SDS011;4931;44.874;-1.092;2023-07-30T01:28:07;11.32;;;4.20;;
9783;SDS011;4931;44.874;-1.092;2023-07-30T01:30:38;12.48;;;4.15;;
9783;SDS011;4931;44.874;-1.092;2023-07-30T01:33:06;11.68;;;4.82;;
9783;SDS011;4931;44.874;-1.092;2023-07-30T01:35:32;10.93;;;4.00;;
9783;SDS011;4931;44.874;-1.092;2023-07-30T01:38:00;14.20;;;3.72;;
9783;SDS011;4931;44.874;-1.092;2023-07-30T01:40:28;11.82;;;3.97;;
9783;SDS011;4931;44.874;-1.092;2023-07-30T01:42:54;14.02;;;4.22;;
9783;SDS011;4931;44.874;-1.092;2023-07-30T01:45:19;11.07;;;4.03;;
9783;SDS011;4931;44.874;-1.092;2023-07-30T01:47:45;10.82;;;3.90;;
9783;SDS011;4931;44.874;-1.092;2023-07-30T01:50:10;11.55;;;3.80;;
9783;SDS011;4931;44.874;-1.092;2023-07-30T01:52:36;13.18;;;3.90;;
9783;SDS011;4931;44.874;-1.092;2023-07-30T01:55:01;10.77;;;3.95;;
9783;SDS011;4931;44.874;-1.092;2023-07-30T01:57:27;12.95;;;3.80;;
9783;SDS011;4931;44.874;-1.092;2023-07-30T01:59:52;8.77;;;4.00;;
9783;SDS011;4931;44.874;-1.092;2023-07-30T02:02:18;10.55;;;3.60;;
9783;SDS011;4931;44.874;-1.092;2023-07-30T02:04:43;10.55;;;4.10;;
9783;SDS011;4931;44.874;-1.092;2023-07-30T02:07:09;11.73;;;4.10;;
9783;SDS011;4931;44.874;-1.092;2023-07-30T02:09:35;17.35;;;3.83;;
9783;SDS011;4931;44.874;-1.092;2023-07-30T02:12:00;16.60;;;4.20;;
9783;SDS011;4931;44.874;-1.092;2023-07-30T02:14:26;9.95;;;4.20;;
9783;SDS011;4931;44.874;-1.092;2023-07-30T02:16:51;8.35;;;3.72;;
9783;SDS011;4931;44.874;-1.092;2023-07-30T02:19:16;13.10;;;4.15;;
9783;SDS011;4931;44.874;-1.092;2023-07-30T02:21:42;10.85;;;4.43;;
9783;SDS011;4931;44.874;-1.092;2023-07-30T02:24:10;11.57;;;4.38;;
9783;SDS011;4931;44.874;-1.092;2023-07-30T02:26:39;8.95;;;4.13;;
9783;SDS011;4931;44.874;-1.092;2023-07-30T02:29:05;10.77;;;4.10;;
9783;SDS011;4931;44.874;-1.092;2023-07-30T02:31:31;10.50;;;3.60;;
9783;SDS011;4931;44.874;-1.092;2023-07-30T02:33:56;13.90;;;4.38;;
9783;SDS011;4931;44.874;-1.092;2023-07-30T02:36:22;8.32;;;3.65;;
9783;SDS011;4931;44.874;-1.092;2023-07-30T02:38:48;9.52;;;4.03;;
9783;SDS011;4931;44.874;-1.092;2023-07-30T02:41:13;10.57;;;3.83;;
9783;SDS011;4931;44.874;-1.092;2023-07-30T02:43:39;10.50;;;3.95;;
9783;SDS011;4931;44.874;-1.092;2023-07-30T02:46:04;11.73;;;3.58;;
9783;SDS011;4931;44.874;-1.092;2023-07-30T02:48:31;9.57;;;4.03;;
9783;SDS011;4931;44.874;-1.092;2023-07-30T02:50:57;11.98;;;4.07;;
9783;SDS011;4931;44.874;-1.092;2023-07-30T02:53:23;11.45;;;4.00;;
9783;SDS011;4931;44.874;-1.092;2023-07-30T02:55:48;12.40;;;4.03;;
9783;SDS011;4931;44.874;-1.092;2023-07-30T02:58:13;9.30;;;3.83;;
9783;SDS011;4931;44.874;-1.092;2023-07-30T03:00:39;12.43;;;4.22;;
9783;SDS011;4931;44.874;-1.092;2023-07-30T03:03:04;11.18;;;3.80;;
9783;SDS011;4931;44.874;-1.092;2023-07-30T03:05:30;13.05;;;3.97;;
9783;SDS011;4931;44.874;-1.092;2023-07-30T03:07:55;9.88;;;3.47;;
9783;SDS011;4931;44.874;-1.092;2023-07-30T03:10:21;10.23;;;3.72;;
9783;SDS011;4931;44.874;-1.092;2023-07-30T03:12:46;12.43;;;3.80;;
9783;SDS011;4931;44.874;-1.092;2023-07-30T03:15:12;9.80;;;3.78;;
9783;SDS011;4931;44.874;-1.092;2023-07-30T03:17:37;9.70;;;3.90;;
9783;SDS011;4931;44.874;-1.092;2023-07-30T03:20:03;12.77;;;4.07;;
9783;SDS011;4931;44.874;-1.092;2023-07-30T03:22:29;9.20;;;3.75;;
9783;SDS011;4931;44.874;-1.092;2023-07-30T03:24:55;7.10;;;3.78;;
9783;SDS011;4931;44.874;-1.092;2023-07-30T03:27:20;13.70;;;3.65;;
9783;SDS011;4931;44.874;-1.092;2023-07-30T03:29:46;9.95;;;3.80;;
9783;SDS011;4931;44.874;-1.092;2023-07-30T03:32:11;10.48;;;4.10;;
9783;SDS011;4931;44.874;-1.092;2023-07-30T03:34:37;10.93;;;4.25;;
9783;SDS011;4931;44.874;-1.092;2023-07-30T03:37:02;10.32;;;4.25;;
9783;SDS011;4931;44.874;-1.092;2023-07-30T03:39:28;9.75;;;4.05;;
9783;SDS011;4931;44.874;-1.092;2023-07-30T03:41:53;10.13;;;4.25;;
9783;SDS011;4931;44.874;-1.092;2023-07-30T03:44:18;11.63;;;3.88;;
9783;SDS011;4931;44.874;-1.092;2023-07-30T03:46:45;8.60;;;3.45;;
9783;SDS011;4931;44.874;-1.092;2023-07-30T03:49:11;9.07;;;3.88;;
9783;SDS011;4931;44.874;-1.092;2023-07-30T03:51:36;10.75;;;3.78;;
9783;SDS011;4931;44.874;-1.092;2023-07-30T03:54:03;9.63;;;3.90;;
9783;SDS011;4931;44.874;-1.092;2023-07-30T03:56:29;7.10;;;3.72;;
9783;SDS011;4931;44.874;-1.092;2023-07-30T03:58:55;10.52;;;3.55;;
9783;SDS011;4931;44.874;-1.092;2023-07-30T04:01:20;8.13;;;3.35;;
9783;SDS011;4931;44.874;-1.092;2023-07-30T04:03:46;8.00;;;4.00;;
9783;SDS011;4931;44.874;-1.092;2023-07-30T04:06:11;7.55;;;4.25;;
9783;SDS011;4931;44.874;-1.092;2023-07-30T04:08:37;12.23;;;4.32;;
9783;SDS011;4931;44.874;-1.092;2023-07-30T04:11:02;10.25;;;4.22;;
9783;SDS011;4931;44.874;-1.092;2023-07-30T04:13:28;10.80;;;3.75;;
9783;SDS011;4931;44.874;-1.092;2023-07-30T04:15:54;12.18;;;3.83;;
9783;SDS011;4931;44.874;-1.092;2023-07-30T04:18:19;11.45;;;4.30;;
9783;SDS011;4931;44.874;-1.092;2023-07-30T04:20:44;15.65;;;4.18;;
9783;SDS011;4931;44.874;-1.092;2023-07-30T04:23:10;11.93;;;4.30;;
9783;SDS011;4931;44.874;-1.092;2023-07-30T04:25:35;13.70;;;3.90;;
9783;SDS011;4931;44.874;-1.092;2023-07-30T04:28:01;13.25;;;4.13;;
9783;SDS011;4931;44.874;-1.092;2023-07-30T04:30:26;12.10;;;3.95;;
9783;SDS011;4931;44.874;-1.092;2023-07-30T04:32:52;11.30;;;4.05;;
9783;SDS011;4931;44.874;-1.092;2023-07-30T04:35:17;9.80;;;4.40;;
9783;SDS011;4931;44.874;-1.092;2023-07-30T04:37:43;13.52;;;4.50;;
9783;SDS011;4931;44.874;-1.092;2023-07-30T04:40:08;10.98;;;4.20;;
9783;SDS011;4931;44.874;-1.092;2023-07-30T04:42:34;12.80;;;3.90;;
9783;SDS011;4931;44.874;-1.092;2023-07-30T04:44:59;13.02;;;4.50;;
9783;SDS011;4931;44.874;-1.092;2023-07-30T04:47:25;10.63;;;4.05;;
9783;SDS011;4931;44.874;-1.092;2023-07-30T04:49:50;9.05;;;4.05;;
9783;SDS011;4931;44.874;-1.092;2023-07-30T04:52:16;10.38;;;3.75;;
9783;SDS011;4931;44.874;-1.092;2023-07-30T04:54:41;12.15;;;4.53;;
9783;SDS011;4931;44.874;-1.092;2023-07-30T04:57:07;10.05;;;3.80;;
9783;SDS011;4931;44.874;-1.092;2023-07-30T04:59:32;11.18;;;3.53;;
9783;SDS011;4931;44.874;-1.092;2023-07-30T05:02:01;9.65;;;3.78;;
9783;SDS011;4931;44.874;-1.092;2023-07-30T05:04:26;11.98;;;3.60;;
9783;SDS011;4931;44.874;-1.092;2023-07-30T05:06:52;10.65;;;3.97;;
9783;SDS011;4931;44.874;-1.092;2023-07-30T05:09:17;10.45;;;3.78;;
9783;SDS011;4931;44.874;-1.092;2023-07-30T05:11:43;11.70;;;4.20;;
9783;SDS011;4931;44.874;-1.092;2023-07-30T05:14:08;14.57;;;4.68;;
9783;SDS011;4931;44.874;-1.092;2023-07-30T05:16:37;11.98;;;4.32;;
9783;SDS011;4931;44.874;-1.092;2023-07-30T05:19:02;10.35;;;4.10;;
9783;SDS011;4931;44.874;-1.092;2023-07-30T05:21:28;13.40;;;4.13;;
9783;SDS011;4931;44.874;-1.092;2023-07-30T05:23:53;10.27;;;3.60;;
9783;SDS011;4931;44.874;-1.092;2023-07-30T05:26:19;11.43;;;4.70;;
9783;SDS011;4931;44.874;-1.092;2023-07-30T05:28:44;8.63;;;3.97;;
9783;SDS011;4931;44.874;-1.092;2023-07-30T05:31:10;9.32;;;3.80;;
9783;SDS011;4931;44.874;-1.092;2023-07-30T05:33:35;8.20;;;4.13;;
9783;SDS011;4931;44.874;-1.092;2023-07-30T05:36:01;9.48;;;3.90;;
9783;SDS011;4931;44.874;-1.092;2023-07-30T05:38:27;10.38;;;4.28;;
9783;SDS011;4931;44.874;-1.092;2023-07-30T05:40:52;11.25;;;4.45;;
9783;SDS011;4931;44.874;-1.092;2023-07-30T05:43:18;18.58;;;4.78;;
9783;SDS011;4931;44.874;-1.092;2023-07-30T05:45:43;11.65;;;4.60;;
9783;SDS011;4931;44.874;-1.092;2023-07-30T05:48:08;13.65;;;4.65;;
9783;SDS011;4931;44.874;-1.092;2023-07-30T05:50:34;9.77;;;4.88;;
9783;SDS011;4931;44.874;-1.092;2023-07-30T05:53:00;11.88;;;4.40;;
9783;SDS011;4931;44.874;-1.092;2023-07-30T05:55:25;12.52;;;5.07;;
9783;SDS011;4931;44.874;-1.092;2023-07-30T05:57:50;11.90;;;4.68;;
9783;SDS011;4931;44.874;-1.092;2023-07-30T06:00:18;15.05;;;4.60;;
9783;SDS011;4931;44.874;-1.092;2023-07-30T06:02:44;11.90;;;4.30;;
9783;SDS011;4931;44.874;-1.092;2023-07-30T06:05:09;16.48;;;5.20;;
9783;SDS011;4931;44.874;-1.092;2023-07-30T06:07:37;15.40;;;4.40;;
9783;SDS011;4931;44.874;-1.092;2023-07-30T06:10:02;13.55;;;4.40;;
9783;SDS011;4931;44.874;-1.092;2023-07-30T06:12:28;12.52;;;4.57;;
9783;SDS011;4931;44.874;-1.092;2023-07-30T06:14:53;14.00;;;4.63;;
9783;SDS011;4931;44.874;-1.092;2023-07-30T06:17:19;14.55;;;4.55;;
9783;SDS011;4931;44.874;-1.092;2023-07-30T06:19:44;13.98;;;4.93;;
9783;SDS011;4931;44.874;-1.092;2023-07-30T06:22:10;12.02;;;5.20;;
9783;SDS011;4931;44.874;-1.092;2023-07-30T06:24:35;14.43;;;4.63;;
9783;SDS011;4931;44.874;-1.092;2023-07-30T06:27:01;12.13;;;4.78;;
9783;SDS011;4931;44.874;-1.092;2023-07-30T06:29:26;14.77;;;4.63;;
9783;SDS011;4931;44.874;-1.092;2023-07-30T06:31:51;16.92;;;5.00;;
9783;SDS011;4931;44.874;-1.092;2023-07-30T06:34:17;13.82;;;5.07;;
9783;SDS011;4931;44.874;-1.092;2023-07-30T06:36:42;15.52;;;4.95;;
9783;SDS011;4931;44.874;-1.092;2023-07-30T06:39:08;14.90;;;5.13;;
9783;SDS011;4931;44.874;-1.092;2023-07-30T06:41:33;19.38;;;5.40;;
9783;SDS011;4931;44.874;-1.092;2023-07-30T06:43:59;11.30;;;4.30;;
9783;SDS011;4931;44.874;-1.092;2023-07-30T06:46:24;13.00;;;4.82;;
9783;SDS011;4931;44.874;-1.092;2023-07-30T06:48:50;15.18;;;4.90;;
9783;SDS011;4931;44.874;-1.092;2023-07-30T06:51:17;16.23;;;4.90;;
9783;SDS011;4931;44.874;-1.092;2023-07-30T06:53:44;16.33;;;5.00;;
9783;SDS011;4931;44.874;-1.092;2023-07-30T06:56:09;15.65;;;5.40;;
9783;SDS011;4931;44.874;-1.092;2023-07-30T06:58:35;12.02;;;4.32;;
9783;SDS011;4931;44.874;-1.092;2023-07-30T07:01:00;17.40;;;4.60;;
9783;SDS011;4931;44.874;-1.092;2023-07-30T07:03:25;11.80;;;4.82;;
9783;SDS011;4931;44.874;-1.092;2023-07-30T07:05:54;12.52;;;4.80;;
9783;SDS011;4931;44.874;-1.092;2023-07-30T07:08:21;17.05;;;4.55;;
9783;SDS011;4931;44.874;-1.092;2023-07-30T07:10:47;10.68;;;4.70;;
9783;SDS011;4931;44.874;-1.092;2023-07-30T07:13:13;15.55;;;4.90;;
9783;SDS011;4931;44.874;-1.092;2023-07-30T07:15:43;14.90;;;4.53;;
9783;SDS011;4931;44.874;-1.092;2023-07-30T07:18:09;12.93;;;4.78;;
9783;SDS011;4931;44.874;-1.092;2023-07-30T07:20:35;13.40;;;4.78;;
9783;SDS011;4931;44.874;-1.092;2023-07-30T07:23:01;12.50;;;4.78;;
9783;SDS011;4931;44.874;-1.092;2023-07-30T07:25:26;15.52;;;4.63;;
9783;SDS011;4931;44.874;-1.092;2023-07-30T07:27:52;13.15;;;4.85;;
9783;SDS011;4931;44.874;-1.092;2023-07-30T07:30:17;12.60;;;4.38;;
9783;SDS011;4931;44.874;-1.092;2023-07-30T07:32:43;11.02;;;4.53;;
9783;SDS011;4931;44.874;-1.092;2023-07-30T07:35:08;14.68;;;4.68;;
9783;SDS011;4931;44.874;-1.092;2023-07-30T07:37:34;11.18;;;4.25;;
9783;SDS011;4931;44.874;-1.092;2023-07-30T07:40:00;16.45;;;4.80;;
9783;SDS011;4931;44.874;-1.092;2023-07-30T07:42:25;15.27;;;4.20;;
9783;SDS011;4931;44.874;-1.092;2023-07-30T07:44:51;16.83;;;4.22;;
9783;SDS011;4931;44.874;-1.092;2023-07-30T07:47:16;15.10;;;3.75;;
9783;SDS011;4931;44.874;-1.092;2023-07-30T07:49:41;15.55;;;4.10;;
9783;SDS011;4931;44.874;-1.092;2023-07-30T07:52:07;14.55;;;4.45;;
9783;SDS011;4931;44.874;-1.092;2023-07-30T07:54:33;10.65;;;3.78;;
9783;SDS011;4931;44.874;-1.092;2023-07-30T07:56:59;17.00;;;3.88;;
9783;SDS011;4931;44.874;-1.092;2023-07-30T07:59:24;12.80;;;3.95;;
9783;SDS011;4931;44.874;-1.092;2023-07-30T08:01:50;9.80;;;3.50;;
9783;SDS011;4931;44.874;-1.092;2023-07-30T08:04:15;13.43;;;3.63;;
9783;SDS011;4931;44.874;-1.092;2023-07-30T08:06:41;14.95;;;3.40;;
9783;SDS011;4931;44.874;-1.092;2023-07-30T08:09:06;12.43;;;3.28;;
9783;SDS011;4931;44.874;-1.092;2023-07-30T08:11:32;10.68;;;3.10;;
9783;SDS011;4931;44.874;-1.092;2023-07-30T08:13:58;12.18;;;3.65;;
9783;SDS011;4931;44.874;-1.092;2023-07-30T08:16:24;10.60;;;3.45;;
9783;SDS011;4931;44.874;-1.092;2023-07-30T08:18:50;10.85;;;2.58;;
9783;SDS011;4931;44.874;-1.092;2023-07-30T08:21:16;10.10;;;2.55;;
9783;SDS011;4931;44.874;-1.092;2023-07-30T08:23:42;10.32;;;2.58;;
9783;SDS011;4931;44.874;-1.092;2023-07-30T08:26:08;8.60;;;2.50;;
9783;SDS011;4931;44.874;-1.092;2023-07-30T08:28:34;9.38;;;2.50;;
9783;SDS011;4931;44.874;-1.092;2023-07-30T08:31:02;8.07;;;2.08;;
9783;SDS011;4931;44.874;-1.092;2023-07-30T08:33:28;11.35;;;2.40;;
9783;SDS011;4931;44.874;-1.092;2023-07-30T08:35:57;10.40;;;2.38;;
9783;SDS011;4931;44.874;-1.092;2023-07-30T08:38:24;8.98;;;2.53;;
9783;SDS011;4931;44.874;-1.092;2023-07-30T08:40:49;10.57;;;2.33;;
9783;SDS011;4931;44.874;-1.092;2023-07-30T08:43:15;6.93;;;2.33;;
9783;SDS011;4931;44.874;-1.092;2023-07-30T08:45:41;8.68;;;2.35;;
9783;SDS011;4931;44.874;-1.092;2023-07-30T08:48:08;9.75;;;2.40;;
9783;SDS011;4931;44.874;-1.092;2023-07-30T08:50:33;9.98;;;3.08;;
9783;SDS011;4931;44.874;-1.092;2023-07-30T08:53:00;5.95;;;1.90;;
9783;SDS011;4931;44.874;-1.092;2023-07-30T08:55:28;7.20;;;2.28;;
9783;SDS011;4931;44.874;-1.092;2023-07-30T08:57:58;5.88;;;2.20;;
9783;SDS011;4931;44.874;-1.092;2023-07-30T09:00:26;7.47;;;2.00;;
9783;SDS011;4931;44.874;-1.092;2023-07-30T09:02:58;7.10;;;2.00;;
9783;SDS011;4931;44.874;-1.092;2023-07-30T09:05:25;13.57;;;2.53;;
9783;SDS011;4931;44.874;-1.092;2023-07-30T09:07:55;8.13;;;2.50;;
9783;SDS011;4931;44.874;-1.092;2023-07-30T09:10:21;7.78;;;2.60;;
9783;SDS011;4931;44.874;-1.092;2023-07-30T09:12:52;7.63;;;2.25;;
9783;SDS011;4931;44.874;-1.092;2023-07-30T09:15:30;9.55;;;2.90;;
9783;SDS011;4931;44.874;-1.092;2023-07-30T09:18:02;9.50;;;2.50;;
9783;SDS011;4931;44.874;-1.092;2023-07-30T09:20:36;11.52;;;2.20;;
9783;SDS011;4931;44.874;-1.092;2023-07-30T09:23:02;7.95;;;2.40;;
9783;SDS011;4931;44.874;-1.092;2023-07-30T09:25:28;9.07;;;2.63;;
9783;SDS011;4931;44.874;-1.092;2023-07-30T09:27:53;11.02;;;2.67;;
9783;SDS011;4931;44.874;-1.092;2023-07-30T09:30:22;10.60;;;2.45;;
9783;SDS011;4931;44.874;-1.092;2023-07-30T09:32:50;8.77;;;2.70;;
9783;SDS011;4931;44.874;-1.092;2023-07-30T09:35:18;6.30;;;2.00;;
9783;SDS011;4931;44.874;-1.092;2023-07-30T09:37:44;11.38;;;2.65;;
9783;SDS011;4931;44.874;-1.092;2023-07-30T09:40:11;8.35;;;1.88;;
9783;SDS011;4931;44.874;-1.092;2023-07-30T09:42:38;7.70;;;2.13;;
9783;SDS011;4931;44.874;-1.092;2023-07-30T09:45:08;7.10;;;1.88;;
9783;SDS011;4931;44.874;-1.092;2023-07-30T09:47:45;8.45;;;2.33;;
9783;SDS011;4931;44.874;-1.092;2023-07-30T09:50:11;7.53;;;2.08;;
9783;SDS011;4931;44.874;-1.092;2023-07-30T09:52:38;8.70;;;2.08;;
9783;SDS011;4931;44.874;-1.092;2023-07-30T09:55:04;8.07;;;1.98;;
9783;SDS011;4931;44.874;-1.092;2023-07-30T09:57:32;6.28;;;2.50;;
9783;SDS011;4931;44.874;-1.092;2023-07-30T09:59:58;7.20;;;2.10;;
9783;SDS011;4931;44.874;-1.092;2023-07-30T10:02:23;6.20;;;2.05;;
9783;SDS011;4931;44.874;-1.092;2023-07-30T10:04:52;7.85;;;2.08;;
9783;SDS011;4931;44.874;-1.092;2023-07-30T10:07:22;9.85;;;2.60;;
9783;SDS011;4931;44.874;-1.092;2023-07-30T10:09:50;8.68;;;2.47;;
9783;SDS011;4931;44.874;-1.092;2023-07-30T10:12:24;7.57;;;2.25;;
9783;SDS011;4931;44.874;-1.092;2023-07-30T10:14:55;8.27;;;2.47;;
9783;SDS011;4931;44.874;-1.092;2023-07-30T10:17:21;8.65;;;2.20;;
9783;SDS011;4931;44.874;-1.092;2023-07-30T10:19:48;7.68;;;2.35;;
9783;SDS011;4931;44.874;-1.092;2023-07-30T10:27:23;8.10;;;2.20;;
9783;SDS011;4931;44.874;-1.092;2023-07-30T10:30:07;5.82;;;2.10;;
9783;SDS011;4931;44.874;-1.092;2023-07-30T10:33:09;8.38;;;2.42;;
9783;SDS011;4931;44.874;-1.092;2023-07-30T10:38:12;8.48;;;3.67;;
9783;SDS011;4931;44.874;-1.092;2023-07-30T10:41:26;7.28;;;2.40;;
9783;SDS011;4931;44.874;-1.092;2023-07-30T10:43:46;7.10;;;2.58;;
9783;SDS011;4931;44.874;-1.092;2023-07-30T10:46:14;7.13;;;2.92;;
9783;SDS011;4931;44.874;-1.092;2023-07-30T10:48:42;7.53;;;2.42;;
9783;SDS011;4931;44.874;-1.092;2023-07-30T10:51:09;7.93;;;2.83;;
9783;SDS011;4931;44.874;-1.092;2023-07-30T10:53:35;7.75;;;2.03;;
9783;SDS011;4931;44.874;-1.092;2023-07-30T10:56:07;7.50;;;1.90;;
9783;SDS011;4931;44.874;-1.092;2023-07-30T10:58:34;7.45;;;2.25;;
9783;SDS011;4931;44.874;-1.092;2023-07-30T11:01:01;6.22;;;2.03;;
9783;SDS011;4931;44.874;-1.092;2023-07-30T11:03:28;8.32;;;2.10;;
9783;SDS011;4931;44.874;-1.092;2023-07-30T11:05:55;6.18;;;2.42;;
9783;SDS011;4931;44.874;-1.092;2023-07-30T11:08:42;8.02;;;2.33;;
9783;SDS011;4931;44.874;-1.092;2023-07-30T11:11:08;5.60;;;1.98;;
9783;SDS011;4931;44.874;-1.092;2023-07-30T11:13:39;7.60;;;2.00;;
9783;SDS011;4931;44.874;-1.092;2023-07-30T11:16:06;8.85;;;3.10;;
9783;SDS011;4931;44.874;-1.092;2023-07-30T11:18:33;8.18;;;2.17;;
9783;SDS011;4931;44.874;-1.092;2023-07-30T11:21:07;5.55;;;2.22;;
9783;SDS011;4931;44.874;-1.092;2023-07-30T11:23:34;6.70;;;2.58;;
9783;SDS011;4931;44.874;-1.092;2023-07-30T11:26:02;7.80;;;2.22;;
9783;SDS011;4931;44.874;-1.092;2023-07-30T11:31:04;7.07;;;2.33;;
9783;SDS011;4931;44.874;-1.092;2023-07-30T11:33:30;7.90;;;2.30;;
9783;SDS011;4931;44.874;-1.092;2023-07-30T11:35:57;7.97;;;2.10;;
9783;SDS011;4931;44.874;-1.092;2023-07-30T11:38:25;5.97;;;2.10;;
9783;SDS011;4931;44.874;-1.092;2023-07-30T11:40:52;6.82;;;2.15;;
9783;SDS011;4931;44.874;-1.092;2023-07-30T11:43:19;8.15;;;2.40;;
9783;SDS011;4931;44.874;-1.092;2023-07-30T11:45:46;7.18;;;1.90;;
9783;SDS011;4931;44.874;-1.092;2023-07-30T11:48:12;9.20;;;2.63;;
9783;SDS011;4931;44.874;-1.092;2023-07-30T11:53:13;7.43;;;2.35;;
9783;SDS011;4931;44.874;-1.092;2023-07-30T11:55:39;7.60;;;2.08;;
9783;SDS011;4931;44.874;-1.092;2023-07-30T11:58:06;7.38;;;2.38;;
9783;SDS011;4931;44.874;-1.092;2023-07-30T12:00:32;10.93;;;2.60;;
9783;SDS011;4931;44.874;-1.092;2023-07-30T12:03:02;8.23;;;2.55;;
9783;SDS011;4931;44.874;-1.092;2023-07-30T12:05:32;7.43;;;2.20;;
9783;SDS011;4931;44.874;-1.092;2023-07-30T12:08:04;6.32;;;2.17;;
9783;SDS011;4931;44.874;-1.092;2023-07-30T12:10:42;11.00;;;2.42;;
9783;SDS011;4931;44.874;-1.092;2023-07-30T12:13:13;7.65;;;2.42;;
9783;SDS011;4931;44.874;-1.092;2023-07-30T12:18:17;8.32;;;2.33;;
9783;SDS011;4931;44.874;-1.092;2023-07-30T12:20:44;7.10;;;2.20;;
9783;SDS011;4931;44.874;-1.092;2023-07-30T12:23:09;6.38;;;2.28;;
9783;SDS011;4931;44.874;-1.092;2023-07-30T12:25:35;8.23;;;2.40;;
9783;SDS011;4931;44.874;-1.092;2023-07-30T12:28:00;9.25;;;2.80;;
9783;SDS011;4931;44.874;-1.092;2023-07-30T12:30:26;6.90;;;2.55;;
9783;SDS011;4931;44.874;-1.092;2023-07-30T12:32:53;8.00;;;2.50;;
9783;SDS011;4931;44.874;-1.092;2023-07-30T12:35:18;9.32;;;2.80;;
9783;SDS011;4931;44.874;-1.092;2023-07-30T12:37:44;6.97;;;2.28;;
9783;SDS011;4931;44.874;-1.092;2023-07-30T12:40:09;6.80;;;2.30;;
9783;SDS011;4931;44.874;-1.092;2023-07-30T12:42:35;6.82;;;2.22;;
9783;SDS011;4931;44.874;-1.092;2023-07-30T12:45:00;9.98;;;2.45;;
9783;SDS011;4931;44.874;-1.092;2023-07-30T12:47:26;6.47;;;2.15;;
9783;SDS011;4931;44.874;-1.092;2023-07-30T12:49:52;8.50;;;2.40;;
9783;SDS011;4931;44.874;-1.092;2023-07-30T12:52:17;7.90;;;2.30;;
9783;SDS011;4931;44.874;-1.092;2023-07-30T12:54:42;6.80;;;2.35;;
9783;SDS011;4931;44.874;-1.092;2023-07-30T12:57:08;11.10;;;2.17;;
9783;SDS011;4931;44.874;-1.092;2023-07-30T12:59:33;6.45;;;2.30;;
9783;SDS011;4931;44.874;-1.092;2023-07-30T13:02:01;5.45;;;2.00;;
9783;SDS011;4931;44.874;-1.092;2023-07-30T13:04:26;8.98;;;2.28;;
9783;SDS011;4931;44.874;-1.092;2023-07-30T13:06:53;4.95;;;2.10;;
9783;SDS011;4931;44.874;-1.092;2023-07-30T13:09:18;9.05;;;3.35;;
9783;SDS011;4931;44.874;-1.092;2023-07-30T13:11:44;8.60;;;2.92;;
9783;SDS011;4931;44.874;-1.092;2023-07-30T13:14:10;7.32;;;3.10;;
9783;SDS011;4931;44.874;-1.092;2023-07-30T13:16:35;6.25;;;2.40;;
9783;SDS011;4931;44.874;-1.092;2023-07-30T13:19:00;10.30;;;3.00;;
9783;SDS011;4931;44.874;-1.092;2023-07-30T13:21:26;6.88;;;2.50;;
9783;SDS011;4931;44.874;-1.092;2023-07-30T13:23:51;8.90;;;2.72;;
9783;SDS011;4931;44.874;-1.092;2023-07-30T13:26:17;8.75;;;2.60;;
9783;SDS011;4931;44.874;-1.092;2023-07-30T13:28:43;10.88;;;2.58;;
9783;SDS011;4931;44.874;-1.092;2023-07-30T13:31:09;8.45;;;2.53;;
9783;SDS011;4931;44.874;-1.092;2023-07-30T13:33:35;9.48;;;2.50;;
9783;SDS011;4931;44.874;-1.092;2023-07-30T13:36:01;10.10;;;2.92;;
9783;SDS011;4931;44.874;-1.092;2023-07-30T13:38:27;8.02;;;2.40;;
9783;SDS011;4931;44.874;-1.092;2023-07-30T13:40:52;8.20;;;2.28;;
9783;SDS011;4931;44.874;-1.092;2023-07-30T13:43:18;6.88;;;2.67;;
9783;SDS011;4931;44.874;-1.092;2023-07-30T13:45:43;9.65;;;2.75;;
9783;SDS011;4931;44.874;-1.092;2023-07-30T13:48:09;7.35;;;2.30;;
9783;SDS011;4931;44.874;-1.092;2023-07-30T13:50:35;7.25;;;2.45;;
9783;SDS011;4931;44.874;-1.092;2023-07-30T13:53:00;10.50;;;2.88;;
9783;SDS011;4931;44.874;-1.092;2023-07-30T13:55:26;7.78;;;2.50;;
9783;SDS011;4931;44.874;-1.092;2023-07-30T13:57:51;8.82;;;2.53;;
9783;SDS011;4931;44.874;-1.092;2023-07-30T14:00:17;9.82;;;2.72;;
9783;SDS011;4931;44.874;-1.092;2023-07-30T14:02:42;9.77;;;3.38;;
9783;SDS011;4931;44.874;-1.092;2023-07-30T14:05:10;9.18;;;2.47;;
9783;SDS011;4931;44.874;-1.092;2023-07-30T14:07:38;8.52;;;2.38;;
9783;SDS011;4931;44.874;-1.092;2023-07-30T14:10:05;7.35;;;2.30;;
9783;SDS011;4931;44.874;-1.092;2023-07-30T14:12:31;8.60;;;2.38;;
9783;SDS011;4931;44.874;-1.092;2023-07-30T14:14:56;7.45;;;2.45;;
9783;SDS011;4931;44.874;-1.092;2023-07-30T14:17:22;7.05;;;2.35;;
9783;SDS011;4931;44.874;-1.092;2023-07-30T14:19:47;10.70;;;3.15;;
9783;SDS011;4931;44.874;-1.092;2023-07-30T14:22:13;10.02;;;2.90;;
9783;SDS011;4931;44.874;-1.092;2023-07-30T14:24:38;9.50;;;2.70;;
9783;SDS011;4931;44.874;-1.092;2023-07-30T14:27:05;8.02;;;2.72;;
9783;SDS011;4931;44.874;-1.092;2023-07-30T14:29:30;8.82;;;3.15;;
9783;SDS011;4931;44.874;-1.092;2023-07-30T14:31:56;11.27;;;3.70;;
9783;SDS011;4931;44.874;-1.092;2023-07-30T14:34:21;8.30;;;2.80;;
9783;SDS011;4931;44.874;-1.092;2023-07-30T14:36:47;13.95;;;3.38;;
9783;SDS011;4931;44.874;-1.092;2023-07-30T14:39:12;8.73;;;2.90;;
9783;SDS011;4931;44.874;-1.092;2023-07-30T14:41:38;11.05;;;2.95;;
9783;SDS011;4931;44.874;-1.092;2023-07-30T14:44:03;7.75;;;2.75;;
9783;SDS011;4931;44.874;-1.092;2023-07-30T14:46:30;8.93;;;2.80;;
9783;SDS011;4931;44.874;-1.092;2023-07-30T14:48:55;9.40;;;3.05;;
9783;SDS011;4931;44.874;-1.092;2023-07-30T14:51:21;13.18;;;3.75;;
9783;SDS011;4931;44.874;-1.092;2023-07-30T14:53:46;9.90;;;3.00;;
9783;SDS011;4931;44.874;-1.092;2023-07-30T14:56:12;10.05;;;3.25;;
9783;SDS011;4931;44.874;-1.092;2023-07-30T14:58:37;12.13;;;4.03;;
9783;SDS011;4931;44.874;-1.092;2023-07-30T15:01:03;8.82;;;3.03;;
9783;SDS011;4931;44.874;-1.092;2023-07-30T15:03:28;12.95;;;3.65;;